Time;durP1;ratioP1;P1;durP2;ratioP2;P2;SDS_P1;SDS_P2;PMS_P1;PMS_P2;Temp;Humidity;BMP_temperature;BMP_pressure;BME280_temperature;BME280_humidity;BME280_pressure;Samples;Min_cycle;Max_cycle;Signal;HPM_P1;HPM_P2
2021/04/08 00:01:13;;;;;;;;;;;;;;;1.97;59.28;99938.09;4346090;33;19992;-89
2021/04/08 00:03:38;;;;;;;;;;;;;;;2.09;59.29;99933.00;4345597;33;20051;-89
2021/04/08 00:06:03;;;;;;;;;;;;;;;2.09;59.29;99942.41;4333167;33;19997;-89
2021/04/08 00:08:29;;;;;;;;;;;;;;;2.18;59.29;99939.06;4333335;33;20324;-89
2021/04/08 00:10:54;;;;;;;;;;;;;;;2.13;59.30;99942.47;4345404;33;20006;-88
2021/04/08 00:13:19;;;;;;;;;;;;;;;2.09;59.29;99927.88;4345452;33;20404;-88
2021/04/08 00:15:44;;;;;;;;;;;;;;;2.08;59.29;99936.41;4345569;33;19995;-87
2021/04/08 00:18:10;;;;;;;;;;;;;;;1.98;59.28;99933.81;4345024;33;20376;-88
2021/04/08 00:20:35;;;;;;;;;;;;;;;1.99;59.29;99938.94;4352589;32;20218;-92
2021/04/08 00:23:00;;;;;;;;;;;;;;;2.08;59.29;99936.41;4362516;32;19983;-92
2021/04/08 00:25:25;;;;;;;;;;;;;;;1.91;59.28;99937.19;4362622;32;20026;-91
2021/04/08 00:27:51;;;;;;;;;;;;;;;1.78;59.27;99941.38;4362732;32;20045;-93
2021/04/08 00:30:16;;;;;;;;;;;;;;;1.76;59.27;99940.53;4363248;32;22751;-91
2021/04/08 00:32:41;;;;;;;;;;;;;;;1.72;59.27;99937.09;4365936;32;20009;-93
2021/04/08 00:35:07;;;;;;;;;;;;;;;1.83;59.27;99947.41;4364518;32;20248;-93
2021/04/08 00:37:32;;;;;;;;;;;;;;;1.83;59.28;99948.25;4363720;32;19984;-93
2021/04/08 00:39:57;;;;;;;;;;;;;;;1.78;59.27;99949.09;4361401;32;20050;-90
2021/04/08 00:42:22;;;;;;;;;;;;;;;1.77;59.27;99952.50;4361576;32;20035;-91
2021/04/08 00:44:48;;;;;;;;;;;;;;;1.76;59.27;99955.91;4361661;32;20002;-91
2021/04/08 00:47:13;;;;;;;;;;;;;;;1.80;59.27;99949.94;4363615;32;19994;-91
2021/04/08 00:49:38;;;;;;;;;;;;;;;1.81;59.27;99957.66;4363938;32;20285;-92
2021/04/08 00:52:03;;;;;;;;;;;;;;;1.85;59.28;99950.84;4364182;32;20005;-92
2021/04/08 00:54:29;;;;;;;;;;;;;;;1.93;59.28;99956.03;4365002;32;19999;-92
2021/04/08 00:56:54;;;;;;;;;;;;;;;1.88;59.28;99960.25;4377979;32;23035;-92
2021/04/08 00:59:19;;;;;;;;;;;;;;;1.78;59.27;99956.78;4364756;32;20294;-91
2021/04/08 01:01:45;;;;;;;;;;;;;;;1.78;59.28;99972.19;4365113;32;19987;-92
2021/04/08 01:04:10;;;;;;;;;;;;;;;1.55;59.27;99969.44;4364023;32;20003;-92
2021/04/08 01:06:35;;;;;;;;;;;;;;;1.62;59.26;99978.03;4364053;32;19987;-91
2021/04/08 01:09:00;;;;;;;;;;;;;;;1.71;59.27;99967.88;4363530;32;20006;-89
2021/04/08 01:11:26;;;;;;;;;;;;;;;1.79;59.28;99968.75;4374558;32;20025;-89
2021/04/08 01:13:51;;;;;;;;;;;;;;;1.65;59.26;99981.47;4374438;32;19994;-88
2021/04/08 01:16:18;;;;;;;;;;;;;;;1.69;59.26;99987.53;4375462;32;19991;-91
2021/04/08 01:19:12;;;;;;;;;;;;;;;1.77;59.27;99991.00;4375838;32;19999;-91
2021/04/08 01:21:38;;;;;;;;;;;;;;;1.85;59.28;99986.78;4322469;32;20331;-90
2021/04/08 01:24:27;;;;;;;;;;;;;;;1.66;59.27;99985.81;4348342;33;19988;-90
2021/04/08 01:27:04;;;;;;;;;;;;;;;1.86;59.28;99983.34;4341704;33;20002;-91
2021/04/08 01:29:36;;;;;;;;;;;;;;;1.82;59.27;99979.91;4348664;33;20010;-90
2021/04/08 01:32:02;;;;;;;;;;;;;;;1.84;59.28;99978.22;4348716;33;19983;-90
2021/04/08 01:34:27;;;;;;;;;;;;;;;1.93;59.28;99986.84;4348377;32;19990;-89
2021/04/08 01:36:53;;;;;;;;;;;;;;;2.00;59.29;99976.59;4348238;33;20003;-91
2021/04/08 01:39:18;;;;;;;;;;;;;;;1.93;59.28;99982.56;4354179;32;20281;-89
2021/04/08 01:41:44;;;;;;;;;;;;;;;1.91;59.27;99984.25;4362845;32;20002;-90
2021/04/08 01:44:19;;;;;;;;;;;;;;;2.02;59.28;99977.47;4362580;32;20317;-90
2021/04/08 01:46:44;;;;;;;;;;;;;;;2.12;59.29;99979.22;4385524;32;19983;-90
2021/04/08 01:49:09;;;;;;;;;;;;;;;1.99;59.29;99982.59;4377043;32;20005;-90
2021/04/08 01:51:35;;;;;;;;;;;;;;;1.80;59.27;99985.87;4369276;32;25510;-90
2021/04/08 01:54:01;;;;;;;;;;;;;;;1.85;59.28;99979.94;4377904;32;20328;-90
2021/04/08 01:56:27;;;;;;;;;;;;;;;1.97;59.28;99979.16;4361995;32;20430;-90
2021/04/08 01:58:52;;;;;;;;;;;;;;;1.97;59.27;99989.44;4374807;32;20053;-89
2021/04/08 02:01:18;;;;;;;;;;;;;;;1.93;59.28;99989.41;4363210;32;20281;-90
2021/04/08 02:03:43;;;;;;;;;;;;;;;2.02;59.28;99995.44;4361742;32;19978;-89
2021/04/08 02:06:08;;;;;;;;;;;;;;;2.03;59.29;99996.31;4361040;32;20280;-88
2021/04/08 02:08:38;;;;;;;;;;;;;;;1.78;59.27;99998.72;4363338;32;20268;-91
2021/04/08 02:11:03;;;;;;;;;;;;;;;1.74;59.27;99998.69;4374977;32;19976;-90
2021/04/08 02:13:28;;;;;;;;;;;;;;;1.59;59.26;99999.41;4362570;32;20006;-92
2021/04/08 02:15:53;;;;;;;;;;;;;;;1.55;59.27;100007.94;4362379;32;19995;-91
2021/04/08 02:18:19;;;;;;;;;;;;;;;1.63;59.26;100003.72;4362311;32;19999;-92
2021/04/08 02:20:44;;;;;;;;;;;;;;;1.60;59.26;100001.12;4357597;32;20031;-91
2021/04/08 02:23:10;;;;;;;;;;;;;;;1.74;59.27;100002.09;4348514;33;19976;-92
2021/04/08 02:25:35;;;;;;;;;;;;;;;1.67;59.27;100002.91;4347480;33;20025;-89
2021/04/08 02:28:01;;;;;;;;;;;;;;;1.61;59.26;100007.09;4347449;33;20338;-90
2021/04/08 02:30:26;;;;;;;;;;;;;;;1.64;59.27;100009.69;4347743;33;20006;-92
2021/04/08 02:32:52;;;;;;;;;;;;;;;1.51;59.26;99998.50;4348513;33;20002;-92
2021/04/08 02:35:17;;;;;;;;;;;;;;;1.61;59.26;100004.53;4351477;33;20289;-92
2021/04/08 02:37:46;;;;;;;;;;;;;;;1.45;59.25;100007.00;4354124;33;20013;-92
2021/04/08 02:40:13;;;;;;;;;;;;;;;1.57;59.26;100006.22;4356599;33;20038;-93
2021/04/08 02:42:38;;;;;;;;;;;;;;;1.63;59.27;100013.97;4349182;33;19983;-93
2021/04/08 02:45:03;;;;;;;;;;;;;;;1.51;59.26;100014.75;4348564;33;20014;-91
2021/04/08 02:47:29;;;;;;;;;;;;;;;1.44;59.25;100020.69;4348414;33;19991;-91
2021/04/08 02:49:54;;;;;;;;;;;;;;;1.36;59.24;100024.84;4347981;33;19987;-91
2021/04/08 02:52:20;;;;;;;;;;;;;;;1.49;59.26;100025.84;4347259;33;19980;-90
2021/04/08 02:54:49;;;;;;;;;;;;;;;1.47;59.25;100028.41;4359965;32;20020;-92
2021/04/08 02:57:24;;;;;;;;;;;;;;;1.42;59.25;100031.72;4347598;33;20007;-91
2021/04/08 03:00:10;;;;;;;;;;;;;;;1.27;59.24;100029.91;4347987;33;20341;-92
2021/04/08 03:02:35;;;;;;;;;;;;;;;1.49;59.26;100036.09;4347973;33;20009;-92
2021/04/08 03:05:00;;;;;;;;;;;;;;;1.39;59.24;100034.28;4348222;33;19995;-92
2021/04/08 03:07:30;;;;;;;;;;;;;;;1.46;59.25;100030.94;4360367;32;20031;-91
2021/04/08 03:09:55;;;;;;;;;;;;;;;1.38;59.24;100035.97;4346337;33;19983;-90
2021/04/08 03:12:21;;;;;;;;;;;;;;;1.39;59.25;100047.97;4346409;33;20035;-89
2021/04/08 03:14:53;;;;;;;;;;;;;;;1.21;59.24;100037.53;4358679;32;20031;-89
2021/04/08 03:17:19;;;;;;;;;;;;;;;1.11;59.23;100039.12;4346491;33;20742;-90
2021/04/08 03:19:44;;;;;;;;;;;;;;;1.30;59.24;100044.47;4347312;33;19976;-88
2021/04/08 03:22:09;;;;;;;;;;;;;;;1.29;59.24;100038.47;4359383;32;20007;-90
2021/04/08 03:24:35;;;;;;;;;;;;;;;1.28;59.24;100043.59;4346294;33;20005;-89
2021/04/08 03:27:00;;;;;;;;;;;;;;;1.38;59.24;100037.69;4346184;33;20443;-89
2021/04/08 03:29:25;;;;;;;;;;;;;;;1.27;59.24;100037.59;4346982;33;20385;-89
2021/04/08 03:31:50;;;;;;;;;;;;;;;1.10;59.23;100046.81;4359563;32;19971;-91
2021/04/08 03:34:16;;;;;;;;;;;;;;;1.14;59.23;100048.56;4347610;33;20336;-88
2021/04/08 03:36:41;;;;;;;;;;;;;;;1.26;59.24;100050.41;4346635;33;19995;-89
2021/04/08 03:39:06;;;;;;;;;;;;;;;1.29;59.24;100053.00;4358974;32;20078;-90
2021/04/08 03:41:35;;;;;;;;;;;;;;;1.19;59.24;100047.78;4346374;33;19987;-89
2021/04/08 03:44:00;;;;;;;;;;;;;;;1.35;59.25;100053.91;4359136;32;19995;-90
2021/04/08 03:46:25;;;;;;;;;;;;;;;1.24;59.23;100060.66;4346783;33;20083;-91
2021/04/08 03:48:50;;;;;;;;;;;;;;;1.25;59.24;100057.25;4346910;33;20344;-90
2021/04/08 03:51:16;;;;;;;;;;;;;;;1.27;59.25;100064.94;4347025;33;20556;-91
2021/04/08 03:53:41;;;;;;;;;;;;;;;1.37;59.25;100066.75;4347273;33;19987;-88
2021/04/08 03:56:07;;;;;;;;;;;;;;;1.42;59.25;100057.37;4346653;33;20003;-91
2021/04/08 03:58:32;;;;;;;;;;;;;;;1.29;59.24;100064.13;4347086;33;20321;-88
2021/04/08 04:01:00;;;;;;;;;;;;;;;1.27;59.25;100060.69;4357722;32;26236;-89
2021/04/08 04:03:26;;;;;;;;;;;;;;;1.24;59.24;100073.47;4358686;32;20010;-90
2021/04/08 04:05:51;;;;;;;;;;;;;;;1.33;59.25;100068.44;4346550;33;20027;-87
2021/04/08 04:08:16;;;;;;;;;;;;;;;1.45;59.25;100077.97;4357792;32;20037;-87
2021/04/08 04:10:41;;;;;;;;;;;;;;;1.60;59.26;100082.38;4347654;33;20038;-93
2021/04/08 04:13:07;;;;;;;;;;;;;;;1.65;59.26;100084.13;4347697;33;20028;-90
2021/04/08 04:15:34;;;;;;;;;;;;;;;1.88;59.28;100093.72;4348136;33;19987;-91
2021/04/08 04:18:05;;;;;;;;;;;;;;;2.05;59.28;100089.59;4348032;33;20037;-92
2021/04/08 04:20:30;;;;;;;;;;;;;;;2.15;59.29;100097.41;4348084;33;19987;-88
2021/04/08 04:22:56;;;;;;;;;;;;;;;2.33;59.30;100100.94;4369590;32;20039;-88
2021/04/08 04:25:21;;;;;;;;;;;;;;;2.31;59.30;100098.34;4373947;32;19960;-88
2021/04/08 04:27:46;;;;;;;;;;;;;;;2.32;59.30;100101.78;4351349;33;20029;-88
2021/04/08 04:30:12;;;;;;;;;;;;;;;2.30;59.30;100100.91;4347981;33;19980;-88
2021/04/08 04:32:37;;;;;;;;;;;;;;;2.31;59.30;100110.34;4345307;33;19987;-88
2021/04/08 04:35:02;;;;;;;;;;;;;;;2.65;59.33;100114.00;4344891;33;25920;-88
2021/04/08 04:37:27;;;;;;;;;;;;;;;2.75;59.33;100110.63;4357757;32;19984;-89
2021/04/08 04:39:53;;;;;;;;;;;;;;;2.93;59.33;100107.28;4356152;32;20674;-89
2021/04/08 04:42:18;;;;;;;;;;;;;;;3.18;59.35;100103.97;4360895;32;26300;-88
2021/04/08 04:44:43;;;;;;;;;;;;;;;3.33;59.37;100106.59;4359685;32;20009;-88
2021/04/08 04:47:08;;;;;;;;;;;;;;;3.21;59.35;100103.97;4361349;32;20009;-88
2021/04/08 04:49:34;;;;;;;;;;;;;;;3.30;59.35;100106.56;4347828;32;20317;-90
2021/04/08 04:51:59;;;;;;;;;;;;;;;3.42;59.37;100103.16;4347448;32;20099;-89
2021/04/08 04:54:24;;;;;;;;;;;;;;;3.44;59.36;100105.75;4361241;32;20026;-89
2021/04/08 04:56:49;;;;;;;;;;;;;;;3.33;59.36;100114.31;4347510;32;19991;-88
2021/04/08 04:59:15;;;;;;;;;;;;;;;3.31;59.35;100112.56;4359911;32;20017;-89
2021/04/08 05:01:40;;;;;;;;;;;;;;;3.40;59.37;100107.47;4347042;32;19991;-89
2021/04/08 05:04:05;;;;;;;;;;;;;;;3.48;59.38;100104.87;4346917;32;20921;-88
2021/04/08 05:06:31;;;;;;;;;;;;;;;3.56;59.37;100110.94;4359682;32;20246;-89
2021/04/08 05:08:56;;;;;;;;;;;;;;;3.56;59.37;100108.37;4347240;32;20022;-88
2021/04/08 05:11:21;;;;;;;;;;;;;;;3.47;59.38;100118.63;4359712;32;20289;-88
2021/04/08 05:13:46;;;;;;;;;;;;;;;3.66;59.38;100117.81;4360646;32;19979;-89
2021/04/08 05:16:12;;;;;;;;;;;;;;;3.53;59.38;100123.78;4359742;32;20003;-90
2021/04/08 05:18:37;;;;;;;;;;;;;;;3.58;59.37;100119.53;4346666;32;25187;-89
2021/04/08 05:21:02;;;;;;;;;;;;;;;3.62;59.38;100118.66;4351342;32;20369;-90
2021/04/08 05:23:27;;;;;;;;;;;;;;;3.61;59.37;100112.66;4332374;33;20021;-88
2021/04/08 05:25:53;;;;;;;;;;;;;;;3.70;59.38;100122.09;4344412;33;20301;-90
2021/04/08 05:28:18;;;;;;;;;;;;;;;3.77;59.39;100121.25;4332237;33;20112;-86
2021/04/08 05:30:43;;;;;;;;;;;;;;;3.80;59.39;100123.00;4344668;33;20000;-87
2021/04/08 05:33:08;;;;;;;;;;;;;;;3.79;59.39;100118.69;4333706;33;19992;-89
2021/04/08 05:35:34;;;;;;;;;;;;;;;4.06;59.40;100116.13;4334821;33;20135;-89
2021/04/08 05:37:59;;;;;;;;;;;;;;;4.15;59.41;100116.13;4334351;33;19979;-89
2021/04/08 05:40:24;;;;;;;;;;;;;;;4.33;59.41;100120.41;4359909;32;20348;-90
2021/04/08 05:42:49;;;;;;;;;;;;;;;4.28;59.42;100123.00;4361526;32;19999;-88
2021/04/08 05:45:19;;;;;;;;;;;;;;;4.29;59.42;100116.13;4362222;32;27445;-87
2021/04/08 05:47:44;;;;;;;;;;;;;;;4.23;59.41;100119.53;4374317;32;20013;-88
2021/04/08 05:50:10;;;;;;;;;;;;;;;4.07;59.40;100117.00;4363308;32;20339;-90
2021/04/08 05:52:35;;;;;;;;;;;;;;;3.86;59.39;100121.28;4363222;32;19983;-89
2021/04/08 05:55:01;;;;;;;;;;;;;;;3.58;59.37;100124.66;4374569;32;20038;-90
2021/04/08 05:57:26;;;;;;;;;;;;;;;3.98;59.41;100135.87;4363103;32;20096;-90
2021/04/08 05:59:51;;;;;;;;;;;;;;;4.08;59.40;100126.44;4363133;32;20046;-90
2021/04/08 06:02:17;;;;;;;;;;;;;;;4.13;59.41;100127.28;4374276;32;20007;-90
2021/04/08 06:04:42;;;;;;;;;;;;;;;4.18;59.41;100130.72;4361530;32;19979;-90
2021/04/08 06:07:07;;;;;;;;;;;;;;;4.17;59.41;100142.75;4362221;32;20009;-90
2021/04/08 06:09:32;;;;;;;;;;;;;;;4.25;59.41;100140.16;4375349;32;20333;-90
2021/04/08 06:11:58;;;;;;;;;;;;;;;4.29;59.42;100137.59;4375690;32;20303;-90
2021/04/08 06:14:23;;;;;;;;;;;;;;;4.26;59.41;100140.19;4362307;32;20007;-90
2021/04/08 06:16:49;;;;;;;;;;;;;;;4.53;59.43;100144.47;4374380;32;19975;-91
2021/04/08 06:19:14;;;;;;;;;;;;;;;4.70;59.44;100138.41;4361767;32;20014;-91
2021/04/08 06:21:39;;;;;;;;;;;;;;;4.81;59.45;100140.09;4373974;32;20283;-89
2021/04/08 06:24:06;;;;;;;;;;;;;;;4.76;59.44;100141.84;4361680;32;19999;-90
2021/04/08 06:26:31;;;;;;;;;;;;;;;4.99;59.45;100144.34;4361704;32;19994;-90
2021/04/08 06:28:56;;;;;;;;;;;;;;;4.77;59.44;100143.56;4374536;32;19995;-91
2021/04/08 06:31:22;;;;;;;;;;;;;;;4.92;59.45;100143.50;4361655;32;22882;-90
2021/04/08 06:33:47;;;;;;;;;;;;;;;5.17;59.47;100140.84;4373951;32;20050;-91
2021/04/08 06:36:12;;;;;;;;;;;;;;;5.26;59.48;100147.69;4374262;32;19983;-91
2021/04/08 06:38:37;;;;;;;;;;;;;;;5.08;59.45;100149.47;4359722;32;20015;-90
2021/04/08 06:41:03;;;;;;;;;;;;;;;5.11;59.47;100138.28;4359432;32;19987;-91
2021/04/08 06:43:28;;;;;;;;;;;;;;;5.33;59.48;100139.06;4358947;32;20227;-90
2021/04/08 06:45:53;;;;;;;;;;;;;;;5.58;59.49;100140.66;4346901;33;20036;-91
2021/04/08 06:48:20;;;;;;;;;;;;;;;5.76;59.49;100147.44;4360045;32;19998;-89
2021/04/08 06:50:46;;;;;;;;;;;;;;;5.79;59.50;100145.69;4347135;33;19995;-89
2021/04/08 06:53:11;;;;;;;;;;;;;;;5.76;59.50;100153.47;4346775;33;20734;-88
2021/04/08 06:55:36;;;;;;;;;;;;;;;5.61;59.48;100152.69;4359026;32;20015;-88
2021/04/08 06:58:02;;;;;;;;;;;;;;;5.60;59.48;100154.41;4348159;32;20432;-90
2021/04/08 07:00:28;;;;;;;;;;;;;;;5.87;59.50;100162.00;4348823;33;20023;-90
2021/04/08 07:02:53;;;;;;;;;;;;;;;5.96;59.51;100162.84;4360837;33;20006;-87
2021/04/08 07:05:18;;;;;;;;;;;;;;;6.05;59.51;100165.38;4358412;33;19983;-88
2021/04/08 07:07:43;;;;;;;;;;;;;;;6.03;59.51;100162.78;4359189;32;20026;-88
2021/04/08 07:10:09;;;;;;;;;;;;;;;6.15;59.52;100165.31;4346499;33;20022;-88
2021/04/08 07:12:34;;;;;;;;;;;;;;;6.29;59.53;100169.50;4358560;32;20002;-88
2021/04/08 07:14:59;;;;;;;;;;;;;;;6.54;59.54;100177.91;4347793;32;19983;-87
2021/04/08 07:17:25;;;;;;;;;;;;;;;6.40;59.53;100172.87;4346262;33;20015;-88
2021/04/08 07:19:50;;;;;;;;;;;;;;;6.54;59.54;100183.94;4346044;32;20000;-87
2021/04/08 07:22:16;;;;;;;;;;;;;;;6.74;59.56;100186.34;4346236;33;19983;-87
2021/04/08 07:24:42;;;;;;;;;;;;;;;6.81;59.56;100181.97;4358792;32;19980;-88
2021/04/08 07:27:08;;;;;;;;;;;;;;;6.75;59.55;100186.31;4346099;33;19992;-88
2021/04/08 07:29:39;;;;;;;;;;;;;;;6.77;59.56;100199.25;4358501;32;20003;-87
2021/04/08 07:32:05;;;;;;;;;;;;;;;6.87;59.56;100194.84;4347529;33;20383;-88
2021/04/08 07:34:34;;;;;;;;;;;;;;;7.12;59.58;100196.31;4346087;33;20003;-89
2021/04/08 07:36:59;;;;;;;;;;;;;;;7.50;59.60;100197.59;4346255;33;19995;-89
2021/04/08 07:39:25;;;;;;;;;;;;;;;7.52;59.59;100195.84;4352861;32;20021;-87
2021/04/08 07:42:01;;;;;;;;;;;;;;;7.68;59.60;100194.78;4360866;32;19979;-88
2021/04/08 07:44:27;;;;;;;;;;;;;;;7.63;59.61;100189.66;4358725;32;20001;-88
2021/04/08 07:46:52;;;;;;;;;;;;;;;7.55;59.60;100195.78;4358404;32;20249;-87
2021/04/08 07:49:33;;;;;;;;;;;;;;;7.44;59.59;100198.53;4355837;32;19995;-87
2021/04/08 07:52:13;;;;;;;;;;;;;;;7.60;59.60;100188.84;4359986;32;20467;-87
2021/04/08 07:54:39;;;;;;;;;;;;;;;7.44;59.59;100197.66;4359785;32;19983;-87
2021/04/08 07:57:04;;;;;;;;;;;;;;;7.08;59.57;100203.22;4360341;32;20026;-86
2021/04/08 07:59:30;;;;;;;;;;;;;;;6.94;59.56;100209.44;4347306;32;20062;-86
2021/04/08 08:02:02;;;;;;;;;;;;;;;6.81;59.56;100207.81;4347610;32;20033;-85
2021/04/08 08:04:28;;;;;;;;;;;;;;;6.86;59.56;100206.94;4359887;32;20333;-86
2021/04/08 08:06:53;;;;;;;;;;;;;;;6.98;59.57;100208.53;4360044;32;20002;-86
2021/04/08 08:09:22;;;;;;;;;;;;;;;7.23;59.58;100203.94;4360142;32;20022;-86
2021/04/08 08:11:49;;;;;;;;;;;;;;;7.36;59.59;100205.53;4359934;32;19983;-86
2021/04/08 08:14:14;;;;;;;;;;;;;;;7.20;59.58;100212.63;4360039;32;20003;-86
2021/04/08 08:16:39;;;;;;;;;;;;;;;7.33;59.59;100213.31;4359851;32;19999;-87
2021/04/08 08:19:05;;;;;;;;;;;;;;;7.12;59.58;100211.00;4359894;32;20253;-86
2021/04/08 08:21:36;;;;;;;;;;;;;;;7.15;59.57;100223.91;4352733;32;19995;-86
2021/04/08 08:24:11;;;;;;;;;;;;;;;7.20;59.58;100220.37;4346260;33;19991;-85
2021/04/08 08:26:40;;;;;;;;;;;;;;;7.17;59.57;100229.91;4357202;32;20042;-86
2021/04/08 08:29:05;;;;;;;;;;;;;;;7.12;59.58;100235.16;4357443;32;20041;-85
2021/04/08 08:31:34;;;;;;;;;;;;;;;7.28;59.58;100228.06;4346214;33;19998;-86
2021/04/08 08:34:01;;;;;;;;;;;;;;;7.13;59.58;100241.19;4344780;33;19987;-86
2021/04/08 08:36:27;;;;;;;;;;;;;;;7.22;59.58;100233.31;4346349;33;19992;-86
2021/04/08 08:38:52;;;;;;;;;;;;;;;7.46;59.59;100237.34;4360629;32;20426;-86
2021/04/08 08:41:17;;;;;;;;;;;;;;;7.57;59.60;100240.66;4358842;32;27517;-86
2021/04/08 08:43:42;;;;;;;;;;;;;;;7.40;59.59;100233.13;4360410;32;24608;-85
2021/04/08 08:46:08;;;;;;;;;;;;;;;7.29;59.58;100246.16;4359624;32;20033;-86
2021/04/08 08:48:33;;;;;;;;;;;;;;;7.61;59.61;100256.19;4360244;32;20027;-86
2021/04/08 08:50:58;;;;;;;;;;;;;;;7.27;59.58;100258.28;4348068;32;20003;-85
2021/04/08 08:53:23;;;;;;;;;;;;;;;7.23;59.58;100260.91;4360035;32;20333;-85
2021/04/08 08:55:49;;;;;;;;;;;;;;;7.23;59.58;100255.72;4358910;32;20318;-86
2021/04/08 08:58:14;;;;;;;;;;;;;;;7.41;59.59;100252.09;4347050;32;20033;-86
2021/04/08 09:00:39;;;;;;;;;;;;;;;7.83;59.61;100235.19;4360745;32;20006;-85
2021/04/08 09:03:05;;;;;;;;;;;;;;;8.12;59.63;100238.22;4346459;32;25953;-86
2021/04/08 09:05:31;;;;;;;;;;;;;;;8.38;59.65;100239.63;4359129;32;20007;-86
2021/04/08 09:08:00;;;;;;;;;;;;;;;8.16;59.63;100232.12;4360810;32;20047;-86
2021/04/08 09:10:29;;;;;;;;;;;;;;;8.14;59.64;100228.69;4361057;32;19991;-87
2021/04/08 09:12:54;;;;;;;;;;;;;;;8.32;59.64;100236.22;4361190;32;20017;-86
2021/04/08 09:15:20;;;;;;;;;;;;;;;8.29;59.63;100245.78;4361215;32;19994;-86
2021/04/08 09:17:46;;;;;;;;;;;;;;;8.28;59.63;100237.13;4362434;32;20344;-85
2021/04/08 09:20:18;;;;;;;;;;;;;;;8.42;59.64;100236.94;4359642;32;19991;-87
2021/04/08 09:22:58;;;;;;;;;;;;;;;8.52;59.66;100237.69;4358941;32;19975;-87
2021/04/08 09:25:31;;;;;;;;;;;;;;;8.77;59.67;100238.13;4347850;33;19996;-87
2021/04/08 09:27:59;;;;;;;;;;;;;;;8.68;59.66;100243.47;4358832;32;20368;-87
2021/04/08 09:30:44;;;;;;;;;;;;;;;8.87;59.67;100232.75;4358823;32;20469;-85
2021/04/08 09:33:10;;;;;;;;;;;;;;;9.06;59.68;100230.69;4347719;33;20005;-87
2021/04/08 09:35:35;;;;;;;;;;;;;;;8.88;59.67;100247.44;4358689;32;19988;-86
2021/04/08 09:38:00;;;;;;;;;;;;;;;8.72;59.66;100229.53;4358989;32;19983;-87
2021/04/08 09:40:28;;;;;;;;;;;;;;;8.92;59.68;100248.22;4359333;32;20365;-86
2021/04/08 09:42:55;;;;;;;;;;;;;;;8.98;59.69;100247.25;4364850;32;19981;-85
2021/04/08 09:45:20;;;;;;;;;;;;;;;9.10;59.68;100270.44;4375459;32;19994;-86
2021/04/08 09:47:45;;;;;;;;;;;;;;;8.69;59.67;100286.69;4372780;32;24770;-87
2021/04/08 09:50:21;;;;;;;;;;;;;;;8.09;59.63;100295.31;4361049;32;20053;-86
2021/04/08 09:52:55;;;;;;;;;;;;;;;7.93;59.63;100289.47;4360780;32;19994;-87
2021/04/08 09:55:33;;;;;;;;;;;;;;;7.87;59.62;100294.72;4360783;32;19995;-86
2021/04/08 09:58:02;;;;;;;;;;;;;;;7.82;59.61;100287.91;4362196;32;20293;-86
2021/04/08 10:00:27;;;;;;;;;;;;;;;8.24;59.64;100276.06;4361313;32;20013;-87
2021/04/08 10:02:56;;;;;;;;;;;;;;;8.50;59.65;100261.03;4360669;32;23043;-87
2021/04/08 10:05:21;;;;;;;;;;;;;;;8.64;59.66;100265.16;4362117;32;20003;-87
2021/04/08 10:07:50;;;;;;;;;;;;;;;9.02;59.68;100269.72;4360790;32;20037;-87
2021/04/08 10:10:15;;;;;;;;;;;;;;;8.97;59.68;100256.78;4362155;32;19994;-87
2021/04/08 10:12:40;;;;;;;;;;;;;;;9.31;59.69;100251.88;4360712;32;19971;-87
2021/04/08 10:15:06;;;;;;;;;;;;;;;9.60;59.71;100255.62;4360710;32;20050;-86
2021/04/08 10:17:37;;;;;;;;;;;;;;;9.74;59.72;100248.44;4360531;32;20037;-87
2021/04/08 10:20:04;;;;;;;;;;;;;;;9.45;59.70;100275.81;4360819;32;19987;-86
2021/04/08 10:22:30;;;;;;;;;;;;;;;8.90;59.68;100288.94;4361846;32;20037;-87
2021/04/08 10:24:55;;;;;;;;;;;;;;;7.63;59.61;100336.47;4360585;32;19999;-87
2021/04/08 10:27:24;;;;;;;;;;;;;;;7.19;59.59;100336.91;4360543;32;20003;-87
2021/04/08 10:29:49;;;;;;;;;;;;;;;7.41;59.59;100347.94;4362056;32;19980;-87
2021/04/08 10:32:27;;;;;;;;;;;;;;;7.69;59.60;100349.34;4361884;32;20010;-87
2021/04/08 10:34:52;;;;;;;;;;;;;;;8.04;59.62;100356.72;4360420;32;20017;-86
2021/04/08 10:37:19;;;;;;;;;;;;;;;8.04;59.62;100363.63;4361267;32;20098;-86
2021/04/08 10:39:44;;;;;;;;;;;;;;;7.98;59.62;100359.37;4360485;32;20010;-86
2021/04/08 10:42:10;;;;;;;;;;;;;;;7.88;59.62;100350.88;4361973;32;19968;-86
2021/04/08 10:44:39;;;;;;;;;;;;;;;7.43;59.59;100354.81;4360532;32;19987;-87
2021/04/08 10:47:14;;;;;;;;;;;;;;;7.20;59.58;100377.47;4361422;32;20269;-87
2021/04/08 10:49:49;;;;;;;;;;;;;;;6.54;59.54;100401.19;4361819;32;19987;-86
2021/04/08 10:52:15;;;;;;;;;;;;;;;6.53;59.54;100399.47;4361597;32;19983;-86
2021/04/08 10:54:41;;;;;;;;;;;;;;;6.28;59.53;100403.88;4361924;32;19987;-85
2021/04/08 10:57:07;;;;;;;;;;;;;;;6.10;59.52;100414.28;4372632;32;20349;-86
2021/04/08 10:59:32;;;;;;;;;;;;;;;5.61;59.49;100424.69;4361785;32;19983;-86
2021/04/08 11:01:58;;;;;;;;;;;;;;;5.23;59.47;100432.47;4372892;32;19987;-86
2021/04/08 11:04:24;;;;;;;;;;;;;;;5.02;59.46;100423.00;4361073;32;20003;-86
2021/04/08 11:06:49;;;;;;;;;;;;;;;4.90;59.44;100413.50;4372144;32;20055;-88
2021/04/08 11:09:23;;;;;;;;;;;;;;;4.69;59.44;100410.88;4361585;32;19987;-86
2021/04/08 11:11:48;;;;;;;;;;;;;;;4.98;59.45;100395.47;4361842;32;19994;-88
2021/04/08 11:14:23;;;;;;;;;;;;;;;5.42;59.48;100384.25;4360018;32;20058;-87
2021/04/08 11:16:49;;;;;;;;;;;;;;;5.70;59.50;100383.37;4372900;32;19991;-87
2021/04/08 11:19:14;;;;;;;;;;;;;;;6.10;59.52;100388.44;4360543;32;20007;-87
2021/04/08 11:21:39;;;;;;;;;;;;;;;6.27;59.52;100386.66;4360353;32;20009;-87
2021/04/08 11:24:05;;;;;;;;;;;;;;;6.38;59.53;100400.38;4345401;33;20002;-86
2021/04/08 11:26:30;;;;;;;;;;;;;;;6.51;59.54;100445.16;4345397;33;20333;-87
2021/04/08 11:28:57;;;;;;;;;;;;;;;6.08;59.52;100426.34;4346296;33;20357;-87
2021/04/08 11:31:22;;;;;;;;;;;;;;;5.40;59.48;100446.22;4347045;33;20051;-88
2021/04/08 11:33:54;;;;;;;;;;;;;;;5.06;59.46;100431.59;4346493;33;20022;-88
2021/04/08 11:36:20;;;;;;;;;;;;;;;4.98;59.45;100415.25;4358719;32;20498;-87
2021/04/08 11:38:46;;;;;;;;;;;;;;;5.40;59.48;100416.97;4360338;32;20022;-88
2021/04/08 11:41:11;;;;;;;;;;;;;;;5.39;59.48;100405.78;4360163;32;19994;-86
2021/04/08 11:43:44;;;;;;;;;;;;;;;5.82;59.50;100400.56;4360017;32;20066;-86
2021/04/08 11:46:28;;;;;;;;;;;;;;;6.17;59.53;100399.66;4361396;32;19979;-86
2021/04/08 11:48:54;;;;;;;;;;;;;;;6.37;59.54;100401.25;4361352;32;20049;-86
2021/04/08 11:51:23;;;;;;;;;;;;;;;6.53;59.54;100396.03;4347785;32;20011;-87
2021/04/08 11:53:48;;;;;;;;;;;;;;;6.71;59.55;100383.00;4360218;32;20065;-87
2021/04/08 11:56:26;;;;;;;;;;;;;;;6.90;59.56;100392.34;4359962;32;19994;-87
2021/04/08 11:58:51;;;;;;;;;;;;;;;7.26;59.59;100379.97;4361605;32;20006;-87
2021/04/08 12:01:17;;;;;;;;;;;;;;;7.55;59.60;100374.53;4360237;32;20003;-88
2021/04/08 12:03:43;;;;;;;;;;;;;;;7.79;59.61;100363.06;4347564;32;20011;-87
2021/04/08 12:06:12;;;;;;;;;;;;;;;7.99;59.63;100361.09;4360196;32;20006;-88
2021/04/08 12:08:38;;;;;;;;;;;;;;;8.29;59.63;100349.53;4372592;32;20034;-89
2021/04/08 12:11:03;;;;;;;;;;;;;;;8.72;59.67;100348.94;4359876;32;20011;-88
2021/04/08 12:13:29;;;;;;;;;;;;;;;8.62;59.66;100327.47;4347831;32;20011;-88
2021/04/08 12:15:55;;;;;;;;;;;;;;;8.86;59.67;100326.22;4361000;32;19987;-89
2021/04/08 12:18:21;;;;;;;;;;;;;;;9.02;59.68;100321.66;4348358;32;20107;-90
2021/04/08 12:20:48;;;;;;;;;;;;;;;9.22;59.69;100316.94;4342160;33;19991;-89
2021/04/08 12:23:14;;;;;;;;;;;;;;;9.45;59.70;100316.53;4346732;33;20419;-89
2021/04/08 12:25:48;;;;;;;;;;;;;;;9.63;59.71;100307.56;4358822;32;20046;-89
2021/04/08 12:28:14;;;;;;;;;;;;;;;9.95;59.73;100294.78;4348145;33;20325;-89
2021/04/08 12:31:00;;;;;;;;;;;;;;;9.93;59.73;100293.94;4359748;32;20205;-88
2021/04/08 12:33:25;;;;;;;;;;;;;;;9.99;59.73;100301.63;4356931;32;19980;-89
2021/04/08 12:35:51;;;;;;;;;;;;;;;10.15;59.74;100300.41;4358519;32;20026;-88
2021/04/08 12:38:16;;;;;;;;;;;;;;;9.77;59.72;100345.41;4358305;32;20022;-87
2021/04/08 12:40:41;;;;;;;;;;;;;;;8.47;59.65;100397.72;4361443;32;20317;-87
2021/04/08 12:43:07;;;;;;;;;;;;;;;7.53;59.59;100394.41;4374519;32;20038;-88
2021/04/08 12:45:32;;;;;;;;;;;;;;;7.06;59.57;100401.72;4362065;32;20357;-89